Time;durP1;ratioP1;P1;durP2;ratioP2;P2;SDS_P1;SDS_P2;PMS_P1;PMS_P2;Temp;Humidity;BMP_temperature;BMP_pressure;BME280_temperature;BME280_humidity;BME280_pressure;Samples;Min_cycle;Max_cycle;Signal;HPM_P1;HPM_P2
2021/06/24 00:00:47;;;;;;;9.30;8.40;;;17.10;99.90;;;;;;5069030;28;20423;-47
2021/06/24 00:03:13;;;;;;;10.77;9.67;;;17.00;99.90;;;;;;5042560;28;20429;-45
2021/06/24 00:05:40;;;;;;;8.80;7.90;;;17.10;99.90;;;;;;5069448;28;20423;-46
2021/06/24 00:08:07;;;;;;;9.90;8.93;;;17.00;99.90;;;;;;5060892;28;20628;-44
2021/06/24 00:10:34;;;;;;;9.43;8.63;;;17.00;99.90;;;;;;5043675;28;20546;-45
2021/06/24 00:13:00;;;;;;;11.40;8.87;;;17.10;99.90;;;;;;5049033;28;20420;-44
2021/06/24 00:15:25;;;;;;;12.10;9.83;;;17.00;99.90;;;;;;5051051;28;20976;-45
2021/06/24 00:17:51;;;;;;;10.27;9.37;;;17.00;99.90;;;;;;5064589;28;20590;-45
2021/06/24 00:20:17;;;;;;;9.93;9.00;;;17.00;99.90;;;;;;5067234;28;20227;-49
2021/06/24 00:22:43;;;;;;;14.83;10.30;;;17.00;99.90;;;;;;5069132;28;20554;-42
2021/06/24 00:25:09;;;;;;;10.23;9.07;;;17.00;99.90;;;;;;5040924;28;20416;-43
2021/06/24 00:27:35;;;;;;;12.43;10.27;;;16.90;99.90;;;;;;5051597;28;20182;-42
2021/06/24 00:30:00;;;;;;;12.90;10.17;;;17.00;99.90;;;;;;5064188;28;20465;-43
2021/06/24 00:32:28;;;;;;;10.47;9.50;;;16.90;99.90;;;;;;5065155;28;20227;-44
2021/06/24 00:34:59;;;;;;;9.93;9.13;;;17.00;99.90;;;;;;5068860;28;20185;-44
2021/06/24 00:37:25;;;;;;;11.63;10.43;;;16.90;99.90;;;;;;5068952;28;20434;-46
2021/06/24 00:39:51;;;;;;;12.07;10.80;;;16.90;99.90;;;;;;5041700;28;20534;-46
2021/06/24 00:42:17;;;;;;;10.80;9.40;;;16.90;99.90;;;;;;5050470;28;20193;-46
2021/06/24 00:44:42;;;;;;;11.60;9.37;;;16.90;99.90;;;;;;5065113;28;20208;-44
2021/06/24 00:47:08;;;;;;;11.60;10.40;;;16.80;99.90;;;;;;5062326;28;20285;-43
2021/06/24 00:49:33;;;;;;;11.77;10.53;;;16.80;99.90;;;;;;5064527;28;20217;-45
2021/06/24 00:51:59;;;;;;;12.30;10.03;;;16.70;99.90;;;;;;5068982;28;20363;-43
2021/06/24 00:54:25;;;;;;;13.63;11.57;;;16.70;99.90;;;;;;5047057;28;20181;-43
2021/06/24 00:56:51;;;;;;;12.27;10.87;;;16.70;99.90;;;;;;5053133;28;20267;-43
2021/06/24 00:59:17;;;;;;;12.03;10.83;;;16.70;99.90;;;;;;5062662;28;20656;-45
2021/06/24 01:01:43;;;;;;;11.70;10.50;;;16.70;99.90;;;;;;5066357;28;20469;-45
2021/06/24 01:04:08;;;;;;;11.77;10.57;;;16.70;99.90;;;;;;5064433;28;20689;-44
2021/06/24 01:06:34;;;;;;;12.97;10.93;;;16.70;99.90;;;;;;5068585;28;20413;-43
2021/06/24 01:09:00;;;;;;;13.80;10.93;;;16.70;99.90;;;;;;5052469;28;20376;-45
2021/06/24 01:11:27;;;;;;;12.33;11.03;;;16.60;99.90;;;;;;5047230;28;20190;-45
2021/06/24 01:13:53;;;;;;;15.03;11.63;;;16.70;99.90;;;;;;5048490;28;20291;-43
2021/06/24 01:16:19;;;;;;;12.27;11.17;;;16.70;99.90;;;;;;5046779;28;20556;-45
2021/06/24 01:18:45;;;;;;;16.23;11.60;;;16.70;99.90;;;;;;5047440;28;20423;-45
2021/06/24 01:21:11;;;;;;;11.87;10.77;;;16.70;99.90;;;;;;5047849;28;20257;-45
2021/06/24 01:23:42;;;;;;;12.80;11.03;;;16.70;99.90;;;;;;5042277;28;20433;-42
2021/06/24 01:26:09;;;;;;;13.23;11.80;;;16.80;99.90;;;;;;5042081;28;20185;-43
2021/06/24 01:28:35;;;;;;;15.20;11.83;;;16.70;99.90;;;;;;5047253;28;20427;-44
2021/06/24 01:31:01;;;;;;;12.60;11.33;;;16.70;99.90;;;;;;5046707;28;20467;-44
2021/06/24 01:33:27;;;;;;;12.60;11.07;;;16.70;99.90;;;;;;5047833;28;20182;-43
2021/06/24 01:36:01;;;;;;;18.77;12.27;;;16.70;99.90;;;;;;5047645;28;20421;-41
2021/06/24 01:38:27;;;;;;;13.10;11.90;;;16.70;99.90;;;;;;5044936;28;20432;-45
2021/06/24 01:40:53;;;;;;;12.57;10.77;;;16.50;99.90;;;;;;5026616;28;20429;-45
2021/06/24 01:43:19;;;;;;;13.97;11.80;;;16.50;99.90;;;;;;5049099;28;20495;-44
2021/06/24 01:45:46;;;;;;;16.60;12.40;;;16.50;99.90;;;;;;5047370;28;20428;-43
2021/06/24 01:48:12;;;;;;;11.93;10.77;;;16.50;99.90;;;;;;5046195;28;20691;-47
2021/06/24 01:50:38;;;;;;;15.17;12.73;;;16.50;99.90;;;;;;5045597;28;20456;-44
2021/06/24 01:53:04;;;;;;;16.10;12.00;;;16.30;99.90;;;;;;5047377;28;20189;-42
2021/06/24 01:55:34;;;;;;;13.77;12.47;;;16.40;99.90;;;;;;5033946;28;20190;-44
2021/06/24 01:58:04;;;;;;;13.50;12.20;;;16.30;99.90;;;;;;5041838;28;20512;-42
2021/06/24 02:00:30;;;;;;;14.03;11.70;;;16.40;99.90;;;;;;5026545;28;20453;-44
2021/06/24 02:02:56;;;;;;;12.37;11.13;;;16.40;99.90;;;;;;5047211;28;20988;-44
2021/06/24 02:05:23;;;;;;;18.13;12.50;;;16.50;99.90;;;;;;5047094;28;20217;-46
2021/06/24 02:07:49;;;;;;;14.80;12.10;;;16.40;99.90;;;;;;5045888;28;20494;-43
2021/06/24 02:10:16;;;;;;;12.53;11.33;;;16.50;99.90;;;;;;5033231;28;20518;-42
2021/06/24 02:12:41;;;;;;;13.03;11.57;;;16.50;99.90;;;;;;5044876;28;20404;-43
2021/06/24 02:15:10;;;;;;;12.77;11.57;;;16.50;99.90;;;;;;5046235;28;20783;-45
2021/06/24 02:17:36;;;;;;;13.40;11.30;;;16.50;99.90;;;;;;5047149;28;20336;-42
2021/06/24 02:20:08;;;;;;;19.13;13.10;;;16.50;99.90;;;;;;5046080;28;20583;-42
2021/06/24 02:22:35;;;;;;;16.93;12.60;;;16.50;99.90;;;;;;5046928;28;20352;-43
2021/06/24 02:25:02;;;;;;;15.47;12.60;;;16.50;99.90;;;;;;5037500;28;20456;-42
2021/06/24 02:27:27;;;;;;;14.97;13.27;;;16.50;99.90;;;;;;5045398;28;20958;-43
2021/06/24 02:29:53;;;;;;;14.83;12.40;;;16.50;99.90;;;;;;5046255;28;20452;-43
2021/06/24 02:32:18;;;;;;;14.07;12.60;;;16.40;99.90;;;;;;5044530;28;20690;-45
2021/06/24 02:34:46;;;;;;;16.67;13.27;;;16.40;99.90;;;;;;5046552;28;20206;-42
2021/06/24 02:37:12;;;;;;;15.80;13.50;;;16.30;99.90;;;;;;5046968;28;20247;-41
2021/06/24 02:39:37;;;;;;;14.13;12.20;;;16.30;99.90;;;;;;5039292;28;20459;-42
2021/06/24 02:42:04;;;;;;;13.67;11.90;;;16.30;99.90;;;;;;5041294;28;20212;-44
2021/06/24 02:44:29;;;;;;;15.50;13.10;;;16.30;99.90;;;;;;5046334;28;20182;-42
2021/06/24 02:46:55;;;;;;;14.90;13.40;;;16.30;99.90;;;;;;5046485;28;20420;-41
2021/06/24 02:49:20;;;;;;;15.30;12.50;;;16.30;99.90;;;;;;5045525;28;20221;-45
2021/06/24 02:51:47;;;;;;;15.07;13.53;;;16.40;99.90;;;;;;5045671;28;20197;-45
2021/06/24 02:54:17;;;;;;;14.93;13.40;;;16.40;99.90;;;;;;5041012;28;20220;-44
2021/06/24 02:56:43;;;;;;;15.97;13.60;;;16.30;99.90;;;;;;5038849;28;20407;-42
2021/06/24 02:59:09;;;;;;;14.87;12.80;;;16.20;99.90;;;;;;5045497;28;20427;-43
2021/06/24 03:01:37;;;;;;;13.90;11.83;;;16.20;99.90;;;;;;5046349;28;20454;-44
2021/06/24 03:04:04;;;;;;;14.57;13.07;;;16.10;99.90;;;;;;5044806;28;20423;-43
2021/06/24 03:06:30;;;;;;;14.00;12.50;;;16.10;99.90;;;;;;5046302;28;20938;-48
2021/06/24 03:08:56;;;;;;;14.23;12.90;;;16.00;99.90;;;;;;5044511;28;20779;-43
2021/06/24 03:11:22;;;;;;;13.93;12.43;;;16.10;99.90;;;;;;5036218;28;20439;-47
2021/06/24 03:13:49;;;;;;;14.77;13.27;;;16.10;99.90;;;;;;5046032;28;20424;-44
2021/06/24 03:16:16;;;;;;;14.63;12.67;;;16.10;99.90;;;;;;5046052;28;20467;-43
2021/06/24 03:18:41;;;;;;;14.20;12.70;;;16.00;99.90;;;;;;5045676;28;20409;-42
2021/06/24 03:21:07;;;;;;;14.20;12.70;;;16.00;99.90;;;;;;5045941;28;20934;-45
2021/06/24 03:23:33;;;;;;;15.30;12.53;;;15.90;99.90;;;;;;5046318;28;20420;-41
2021/06/24 03:25:59;;;;;;;14.70;13.20;;;15.90;99.90;;;;;;5038506;28;20860;-42
2021/06/24 03:28:24;;;;;;;15.60;13.70;;;15.90;99.90;;;;;;5049931;28;20205;-44
2021/06/24 03:30:50;;;;;;;16.03;13.93;;;15.90;99.90;;;;;;5046875;28;20297;-43
2021/06/24 03:33:16;;;;;;;14.23;12.83;;;15.90;99.90;;;;;;5050154;28;20200;-45
2021/06/24 03:35:44;;;;;;;13.93;12.60;;;15.90;99.90;;;;;;5050210;28;20192;-45
2021/06/24 03:38:11;;;;;;;14.70;13.20;;;16.00;99.90;;;;;;5050241;28;20190;-46
2021/06/24 03:40:36;;;;;;;16.47;13.40;;;16.00;99.90;;;;;;5038080;28;20463;-45
2021/06/24 03:43:02;;;;;;;16.97;12.43;;;16.00;99.90;;;;;;5045863;28;20910;-44
2021/06/24 03:45:28;;;;;;;18.37;13.73;;;16.00;99.90;;;;;;5049525;28;20771;-46
2021/06/24 03:47:53;;;;;;;14.50;12.97;;;16.00;99.90;;;;;;5049960;28;20189;-48
2021/06/24 03:50:19;;;;;;;16.47;14.77;;;15.90;99.90;;;;;;5049452;28;20212;-44
2021/06/24 03:52:45;;;;;;;14.50;13.10;;;15.90;99.90;;;;;;5049629;28;20243;-43
2021/06/24 03:55:12;;;;;;;16.30;14.00;;;15.80;99.90;;;;;;5042219;28;20432;-43
2021/06/24 03:57:37;;;;;;;14.77;13.27;;;15.80;99.90;;;;;;5045655;28;20229;-46
2021/06/24 04:00:04;;;;;;;14.53;13.03;;;15.90;99.90;;;;;;5048923;28;20451;-43
2021/06/24 04:02:30;;;;;;;13.30;12.00;;;15.90;99.90;;;;;;5049565;28;20186;-43
2021/06/24 04:04:56;;;;;;;20.37;14.00;;;16.00;99.90;;;;;;5049483;28;20424;-43
2021/06/24 04:07:22;;;;;;;17.33;14.07;;;16.00;99.90;;;;;;5049558;28;20216;-44
2021/06/24 04:09:48;;;;;;;18.50;13.43;;;16.00;99.90;;;;;;5044371;28;20456;-45
2021/06/24 04:12:14;;;;;;;15.77;14.17;;;16.00;99.90;;;;;;5039346;28;20866;-44
2021/06/24 04:14:39;;;;;;;15.63;13.90;;;16.00;99.90;;;;;;5049355;28;20864;-43
2021/06/24 04:17:05;;;;;;;17.27;13.57;;;16.10;99.90;;;;;;5049155;28;20178;-47
2021/06/24 04:19:31;;;;;;;15.53;13.80;;;16.10;99.90;;;;;;5049147;28;20185;-46
2021/06/24 04:21:57;;;;;;;17.70;14.80;;;16.00;99.90;;;;;;5048860;28;20629;-42
2021/06/24 04:24:22;;;;;;;14.70;13.30;;;16.00;99.90;;;;;;5049441;28;20182;-46
2021/06/24 04:26:48;;;;;;;16.73;13.40;;;16.00;99.90;;;;;;5037011;28;20268;-42
2021/06/24 04:29:14;;;;;;;16.40;14.70;;;16.00;99.90;;;;;;5047910;28;20220;-44
2021/06/24 04:31:39;;;;;;;15.80;13.27;;;16.00;99.90;;;;;;5029984;28;20672;-41
2021/06/24 04:34:06;;;;;;;17.70;13.40;;;16.00;99.90;;;;;;5047781;28;20748;-44
2021/06/24 04:36:32;;;;;;;15.57;13.40;;;16.00;99.90;;;;;;5048732;28;20655;-43
2021/06/24 04:38:58;;;;;;;19.07;14.63;;;16.00;99.90;;;;;;5047964;28;20412;-45
2021/06/24 04:41:24;;;;;;;16.33;14.00;;;16.00;99.90;;;;;;5041497;28;20436;-43
2021/06/24 04:43:50;;;;;;;16.60;14.83;;;16.10;99.90;;;;;;5048700;28;20966;-45
2021/06/24 04:46:15;;;;;;;19.90;15.20;;;16.00;99.90;;;;;;5048927;28;20182;-42
2021/06/24 04:48:41;;;;;;;18.43;14.57;;;16.10;99.90;;;;;;5048008;28;20231;-42
2021/06/24 04:51:07;;;;;;;15.97;14.20;;;16.10;99.90;;;;;;5048896;28;20308;-44
2021/06/24 04:53:32;;;;;;;19.97;14.60;;;16.20;99.90;;;;;;5047486;28;20185;-42
2021/06/24 04:55:58;;;;;;;16.80;14.80;;;16.20;99.90;;;;;;5041297;28;20581;-45
2021/06/24 04:58:24;;;;;;;16.73;14.27;;;16.30;99.90;;;;;;5044278;28;20187;-47
2021/06/24 05:00:49;;;;;;;19.40;14.60;;;16.40;99.90;;;;;;5043424;28;20196;-43
2021/06/24 05:03:15;;;;;;;15.87;14.20;;;16.50;99.90;;;;;;5048557;28;20197;-45
2021/06/24 05:05:42;;;;;;;15.73;14.00;;;16.50;99.90;;;;;;5047986;28;20620;-43
2021/06/24 05:08:13;;;;;;;19.40;14.47;;;16.50;99.90;;;;;;5044101;28;20249;-46
2021/06/24 05:10:40;;;;;;;15.10;13.60;;;16.50;99.90;;;;;;5042172;28;20468;-43
2021/06/24 05:13:05;;;;;;;19.07;14.00;;;16.60;99.90;;;;;;5043213;28;20946;-44
2021/06/24 05:15:32;;;;;;;15.97;13.50;;;16.50;99.90;;;;;;5045330;28;20493;-45
2021/06/24 05:17:57;;;;;;;16.90;13.40;;;16.70;99.90;;;;;;5047011;28;20608;-43
2021/06/24 05:20:23;;;;;;;18.87;14.50;;;16.70;99.90;;;;;;5045139;28;20455;-45
2021/06/24 05:22:49;;;;;;;19.40;15.40;;;16.60;99.90;;;;;;5046942;28;20416;-43
2021/06/24 05:25:15;;;;;;;17.43;13.87;;;16.50;99.90;;;;;;5045046;28;20439;-42
2021/06/24 05:27:40;;;;;;;25.13;15.03;;;16.60;99.90;;;;;;5045447;28;20182;-42
2021/06/24 05:30:08;;;;;;;17.80;14.30;;;16.60;99.90;;;;;;5049146;28;20216;-42
2021/06/24 05:32:34;;;;;;;17.03;14.60;;;16.70;99.90;;;;;;5065914;28;20185;-43
2021/06/24 05:35:00;;;;;;;18.50;13.50;;;16.70;99.90;;;;;;5059053;28;20806;-42
2021/06/24 05:37:25;;;;;;;17.90;14.60;;;16.70;99.90;;;;;;5068049;28;20193;-43
2021/06/24 05:39:51;;;;;;;18.00;15.83;;;16.70;99.90;;;;;;5067028;28;20424;-45
2021/06/24 05:42:18;;;;;;;17.90;14.63;;;16.70;99.90;;;;;;5040690;28;20715;-44
2021/06/24 05:44:43;;;;;;;17.27;15.50;;;16.70;99.90;;;;;;5047601;28;20265;-45
2021/06/24 05:47:09;;;;;;;16.00;13.80;;;16.60;99.90;;;;;;5047318;28;20444;-46
2021/06/24 05:49:35;;;;;;;17.53;14.60;;;16.70;99.90;;;;;;5045703;28;20264;-42
2021/06/24 05:52:00;;;;;;;23.27;16.67;;;16.70;99.90;;;;;;5040379;28;20580;-44
2021/06/24 05:54:26;;;;;;;21.53;16.70;;;16.70;99.90;;;;;;5042199;28;20417;-42
2021/06/24 05:56:52;;;;;;;23.67;16.67;;;16.70;99.90;;;;;;5033710;28;20264;-42
2021/06/24 05:59:17;;;;;;;19.07;15.30;;;16.70;99.90;;;;;;5043548;28;20182;-44
2021/06/24 06:01:47;;;;;;;17.23;15.23;;;16.70;99.90;;;;;;5047339;28;20639;-46
2021/06/24 06:04:13;;;;;;;18.90;15.93;;;16.80;99.90;;;;;;5047223;28;20186;-46
2021/06/24 06:06:38;;;;;;;17.63;15.17;;;16.80;99.90;;;;;;5044069;28;20659;-44
2021/06/24 06:09:05;;;;;;;21.67;14.93;;;16.90;99.90;;;;;;5042761;28;20461;-43
2021/06/24 06:11:31;;;;;;;21.33;15.77;;;17.00;99.90;;;;;;5044124;28;20185;-43
2021/06/24 06:13:57;;;;;;;18.57;15.40;;;17.10;99.90;;;;;;5043330;28;20416;-41
2021/06/24 06:16:22;;;;;;;21.83;16.40;;;17.20;99.90;;;;;;5045455;28;20182;-45
2021/06/24 06:18:48;;;;;;;18.60;16.20;;;17.30;99.90;;;;;;5044722;28;20320;-42
2021/06/24 06:21:14;;;;;;;21.13;17.13;;;17.40;99.90;;;;;;5046898;28;20201;-45
2021/06/24 06:23:40;;;;;;;20.40;16.80;;;17.50;99.90;;;;;;5041994;28;20194;-44
2021/06/24 06:26:06;;;;;;;22.77;16.93;;;17.50;99.90;;;;;;5037445;28;20807;-42
2021/06/24 06:28:32;;;;;;;21.37;16.83;;;17.60;99.90;;;;;;5045636;28;20214;-45
2021/06/24 06:30:59;;;;;;;19.37;17.37;;;17.50;99.90;;;;;;5046050;28;20672;-47
2021/06/24 06:33:25;;;;;;;22.63;17.53;;;17.50;99.90;;;;;;5046386;28;20652;-46
2021/06/24 06:35:51;;;;;;;23.10;18.53;;;17.50;99.90;;;;;;5044355;28;20478;-45
2021/06/24 06:38:19;;;;;;;19.97;17.77;;;17.50;99.90;;;;;;5047202;28;20428;-45
2021/06/24 06:40:44;;;;;;;21.00;18.27;;;17.50;99.90;;;;;;5043363;28;20934;-43
2021/06/24 06:43:12;;;;;;;25.50;19.30;;;17.40;99.90;;;;;;5043149;28;20432;-45
2021/06/24 06:45:38;;;;;;;25.30;20.40;;;17.40;99.90;;;;;;5045953;28;20420;-42
2021/06/24 06:48:04;;;;;;;25.57;22.80;;;17.40;99.90;;;;;;5044873;28;20420;-42
2021/06/24 06:50:31;;;;;;;26.03;22.37;;;17.40;99.90;;;;;;5045322;28;20867;-45
2021/06/24 06:52:57;;;;;;;24.87;21.70;;;17.40;99.90;;;;;;5044400;28;20428;-41
2021/06/24 06:55:28;;;;;;;24.90;22.07;;;17.40;99.90;;;;;;5057477;28;20497;-44
2021/06/24 06:57:55;;;;;;;25.87;21.30;;;17.30;99.90;;;;;;5036290;28;20432;-46
2021/06/24 07:00:23;;;;;;;25.50;21.90;;;17.40;99.90;;;;;;5045423;28;20858;-45
2021/06/24 07:02:50;;;;;;;26.63;21.90;;;17.40;99.90;;;;;;5046678;28;20424;-44
2021/06/24 07:05:15;;;;;;;26.63;22.13;;;17.50;99.90;;;;;;5046190;28;20969;-42
2021/06/24 07:07:41;;;;;;;28.33;20.87;;;17.60;99.90;;;;;;5044820;28;20458;-42
2021/06/24 07:10:07;;;;;;;24.57;22.00;;;17.60;99.90;;;;;;5043998;28;20225;-44
2021/06/24 07:12:34;;;;;;;24.50;21.90;;;17.70;99.90;;;;;;5036637;28;20288;-45
2021/06/24 07:15:00;;;;;;;24.27;21.30;;;17.70;99.90;;;;;;5044291;28;20899;-44
2021/06/24 07:17:25;;;;;;;24.13;21.67;;;17.80;99.90;;;;;;5046877;28;20549;-48
2021/06/24 07:19:51;;;;;;;24.77;22.23;;;17.90;99.90;;;;;;5045043;28;20439;-45
2021/06/24 07:22:17;;;;;;;26.60;23.70;;;17.90;99.90;;;;;;5047209;28;20247;-41
2021/06/24 07:24:43;;;;;;;26.87;23.23;;;18.00;99.90;;;;;;5045292;28;20189;-46
2021/06/24 07:27:09;;;;;;;27.67;23.77;;;17.90;99.90;;;;;;5038922;28;20617;-47
2021/06/24 07:29:35;;;;;;;29.27;23.97;;;18.00;99.90;;;;;;5044708;28;20205;-41
2021/06/24 07:32:00;;;;;;;29.33;25.50;;;18.00;99.90;;;;;;5044732;28;20424;-42
2021/06/24 07:34:26;;;;;;;28.90;25.90;;;18.00;99.90;;;;;;5046162;28;20438;-44
2021/06/24 07:36:52;;;;;;;27.27;24.47;;;18.10;99.90;;;;;;5045605;28;20255;-47
2021/06/24 07:39:18;;;;;;;26.67;23.73;;;18.10;99.90;;;;;;5044297;28;20255;-45
2021/06/24 07:41:43;;;;;;;27.30;22.93;;;18.20;99.90;;;;;;5039358;28;20229;-45
2021/06/24 07:44:09;;;;;;;27.80;23.97;;;18.20;99.90;;;;;;5041681;28;20197;-42
2021/06/24 07:46:35;;;;;;;25.60;22.90;;;18.30;99.90;;;;;;5052167;28;20427;-44
2021/06/24 07:49:00;;;;;;;28.57;25.20;;;18.30;99.90;;;;;;5065070;28;20228;-42
2021/06/24 07:51:26;;;;;;;28.17;23.90;;;18.40;99.90;;;;;;5053628;28;20817;-46
2021/06/24 07:53:52;;;;;;;26.77;23.97;;;18.40;99.90;;;;;;5064809;28;20636;-45
2021/06/24 07:56:17;;;;;;;28.77;24.00;;;18.30;99.90;;;;;;5063904;28;20449;-45
2021/06/24 07:58:43;;;;;;;22.73;20.33;;;18.40;99.90;;;;;;5029372;28;20311;-44
2021/06/24 08:01:09;;;;;;;24.47;21.70;;;18.40;99.90;;;;;;5045856;28;20611;-43
2021/06/24 08:03:36;;;;;;;22.70;20.17;;;18.40;99.90;;;;;;5046074;28;20557;-45
2021/06/24 08:06:03;;;;;;;27.53;23.80;;;18.40;99.90;;;;;;5045366;28;20536;-45
2021/06/24 08:08:28;;;;;;;30.03;24.43;;;18.40;99.90;;;;;;5045401;28;20448;-42
2021/06/24 08:10:55;;;;;;;24.80;22.30;;;18.50;99.90;;;;;;5045231;28;20471;-41
2021/06/24 08:13:22;;;;;;;27.47;24.60;;;18.50;99.90;;;;;;5032780;28;20222;-42
2021/06/24 08:15:50;;;;;;;29.53;26.47;;;18.50;99.90;;;;;;5049125;28;20416;-46
2021/06/24 08:18:16;;;;;;;33.00;25.73;;;18.50;99.90;;;;;;5049294;28;20420;-43
2021/06/24 08:20:42;;;;;;;32.00;28.47;;;18.50;99.90;;;;;;5048815;28;20961;-45
2021/06/24 08:23:08;;;;;;;31.77;27.60;;;18.50;99.90;;;;;;5049112;28;20507;-42
2021/06/24 08:25:34;;;;;;;33.63;29.93;;;18.50;99.90;;;;;;5049228;28;20432;-44
2021/06/24 08:28:00;;;;;;;32.77;27.10;;;18.40;99.90;;;;;;5037403;28;20932;-43
2021/06/24 08:30:26;;;;;;;31.60;28.30;;;18.50;99.90;;;;;;5047816;28;20308;-42
2021/06/24 08:32:51;;;;;;;30.10;26.93;;;18.50;99.90;;;;;;5047483;28;20192;-44
2021/06/24 08:35:17;;;;;;;30.40;27.10;;;18.60;99.90;;;;;;5049047;28;20232;-41
2021/06/24 08:37:43;;;;;;;31.27;27.50;;;18.70;99.90;;;;;;5049034;28;20231;-43
2021/06/24 08:40:10;;;;;;;30.33;26.73;;;18.70;99.90;;;;;;5048201;28;20201;-42
2021/06/24 08:42:37;;;;;;;34.00;30.00;;;18.80;99.90;;;;;;5042098;28;20493;-45
2021/06/24 08:45:07;;;;;;;30.73;27.50;;;18.80;99.90;;;;;;5048078;28;20509;-44
2021/06/24 08:47:35;;;;;;;25.20;22.50;;;18.80;99.90;;;;;;5048296;28;20482;-42
2021/06/24 08:50:01;;;;;;;27.57;24.57;;;18.80;99.90;;;;;;5048177;28;20552;-43
2021/06/24 08:52:28;;;;;;;22.77;20.37;;;18.80;99.90;;;;;;5048507;28;20420;-42
2021/06/24 08:54:54;;;;;;;26.43;21.50;;;18.80;99.90;;;;;;5048721;28;20927;-42
2021/06/24 08:57:20;;;;;;;26.77;23.97;;;18.80;99.90;;;;;;5042885;28;20544;-43
2021/06/24 08:59:46;;;;;;;25.70;22.83;;;18.80;99.90;;;;;;5043078;28;20664;-45
2021/06/24 09:02:14;;;;;;;24.73;22.10;;;18.80;99.90;;;;;;5047964;28;20201;-42
2021/06/24 09:04:45;;;;;;;22.33;20.03;;;18.90;99.90;;;;;;5048497;28;20189;-43
2021/06/24 09:07:25;;;;;;;19.90;17.90;;;18.90;99.90;;;;;;5047183;28;20424;-44
2021/06/24 09:09:58;;;;;;;20.70;18.60;;;18.90;99.90;;;;;;5047565;28;20475;-44
2021/06/24 09:12:25;;;;;;;20.43;18.23;;;19.00;99.90;;;;;;5042182;28;20477;-45
2021/06/24 09:15:02;;;;;;;20.33;17.33;;;19.10;99.90;;;;;;5041684;28;20493;-45
2021/06/24 09:17:39;;;;;;;22.83;18.50;;;19.20;99.90;;;;;;5046802;28;20771;-43
2021/06/24 09:20:23;;;;;;;19.87;17.77;;;19.20;99.90;;;;;;5047589;28;20416;-44
2021/06/24 09:23:07;;;;;;;19.50;17.10;;;19.30;99.90;;;;;;5046392;28;20432;-44
2021/06/24 09:25:37;;;;;;;20.93;18.73;;;19.30;99.90;;;;;;5048181;28;20531;-42
2021/06/24 09:28:05;;;;;;;21.47;17.00;;;19.30;99.90;;;;;;5038725;28;20449;-41
2021/06/24 09:30:35;;;;;;;22.10;18.17;;;19.40;99.90;;;;;;5046961;28;20456;-44
2021/06/24 09:33:08;;;;;;;24.03;19.50;;;19.30;99.90;;;;;;5046643;28;20439;-42
2021/06/24 09:35:34;;;;;;;23.87;21.40;;;19.40;99.90;;;;;;5047508;28;20408;-45
2021/06/24 09:38:09;;;;;;;26.00;20.80;;;19.40;99.90;;;;;;5048124;28;20420;-42
2021/06/24 09:40:41;;;;;;;28.47;22.70;;;19.50;99.90;;;;;;5045643;28;20432;-45
2021/06/24 09:43:12;;;;;;;21.50;19.30;;;19.50;99.90;;;;;;5042762;28;20948;-42
2021/06/24 09:45:38;;;;;;;28.13;21.37;;;19.50;99.90;;;;;;5047206;28;20930;-44
2021/06/24 09:48:11;;;;;;;23.03;20.67;;;19.50;99.90;;;;;;5047882;28;20420;-42
2021/06/24 09:50:38;;;;;;;21.10;19.03;;;19.50;99.90;;;;;;5045440;28;20556;-44
2021/06/24 09:53:09;;;;;;;21.90;19.60;;;19.50;99.90;;;;;;5047573;28;20439;-43
2021/06/24 09:55:35;;;;;;;20.43;18.43;;;19.50;99.90;;;;;;5047288;28;20416;-42
2021/06/24 09:58:17;;;;;;;19.73;17.43;;;19.60;99.90;;;;;;5038536;28;20433;-45
2021/06/24 10:00:51;;;;;;;20.43;18.30;;;19.60;99.90;;;;;;5042386;28;20185;-44
2021/06/24 10:03:18;;;;;;;21.13;18.60;;;19.70;99.90;;;;;;5047689;28;20487;-42
2021/06/24 10:05:44;;;;;;;20.53;18.40;;;19.80;99.90;;;;;;5046183;28;20421;-42
2021/06/24 10:08:12;;;;;;;19.53;17.63;;;19.90;99.90;;;;;;5045797;28;20640;-46
2021/06/24 10:10:39;;;;;;;22.43;20.23;;;20.00;99.90;;;;;;5046486;28;20765;-43
2021/06/24 10:13:06;;;;;;;20.37;18.50;;;20.10;99.90;;;;;;5038780;28;20465;-43
2021/06/24 10:15:33;;;;;;;21.93;19.93;;;20.10;99.90;;;;;;5045826;28;20488;-44
2021/06/24 10:17:59;;;;;;;22.00;19.73;;;20.20;99.90;;;;;;5047250;28;20420;-45
2021/06/24 10:20:29;;;;;;;24.87;22.17;;;20.30;99.90;;;;;;5046463;28;20428;-43
2021/06/24 10:23:09;;;;;;;23.67;21.37;;;20.30;99.90;;;;;;5045408;28;20190;-43
2021/06/24 10:25:38;;;;;;;23.33;21.03;;;20.40;99.90;;;;;;5047239;28;20435;-42
2021/06/24 10:28:04;;;;;;;24.57;21.67;;;20.40;99.90;;;;;;5039543;28;20449;-44
2021/06/24 10:30:38;;;;;;;24.30;21.90;;;20.30;99.90;;;;;;5038325;28;20993;-44
2021/06/24 10:33:11;;;;;;;24.30;22.10;;;20.20;99.90;;;;;;5046527;28;20418;-45
2021/06/24 10:35:42;;;;;;;23.53;21.23;;;20.10;99.90;;;;;;5046454;28;20923;-44
2021/06/24 10:38:10;;;;;;;23.30;20.87;;;20.10;99.90;;;;;;5046383;28;20435;-46
2021/06/24 10:40:41;;;;;;;23.07;20.87;;;20.10;99.90;;;;;;5046196;28;20428;-43
2021/06/24 10:43:15;;;;;;;23.47;20.27;;;20.10;99.90;;;;;;5039614;28;20436;-44
2021/06/24 10:45:43;;;;;;;22.17;19.83;;;20.00;99.90;;;;;;5038376;28;20508;-47
2021/06/24 10:48:25;;;;;;;20.63;18.70;;;20.00;99.90;;;;;;5046814;28;20439;-44
2021/06/24 10:51:12;;;;;;;21.10;19.00;;;20.00;99.90;;;;;;5045848;28;20834;-46
2021/06/24 10:53:58;;;;;;;20.33;18.53;;;20.00;99.90;;;;;;5046525;28;20547;-45
2021/06/24 10:56:40;;;;;;;20.90;18.70;;;20.00;99.90;;;;;;5046398;28;20436;-45
2021/06/24 10:59:25;;;;;;;19.60;17.60;;;20.10;99.90;;;;;;5035116;28;20441;-45
2021/06/24 11:01:51;;;;;;;20.77;18.63;;;20.20;99.90;;;;;;5045165;28;20663;-44
2021/06/24 11:04:33;;;;;;;18.77;17.07;;;20.30;99.90;;;;;;5046229;28;20907;-45
2021/06/24 11:07:05;;;;;;;20.40;18.30;;;20.40;99.90;;;;;;5046118;28;20416;-46
2021/06/24 11:09:31;;;;;;;19.17;17.00;;;20.50;99.90;;;;;;5032847;28;20533;-43
2021/06/24 11:11:57;;;;;;;21.83;19.53;;;20.50;99.90;;;;;;5045232;28;20822;-44
2021/06/24 11:14:54;;;;;;;19.23;17.33;;;20.60;99.90;;;;;;5034395;28;20229;-43
2021/06/24 11:17:46;;;;;;;21.00;18.70;;;20.50;99.90;;;;;;5045159;28;20258;-43
2021/06/24 11:20:17;;;;;;;21.30;18.87;;;20.60;99.90;;;;;;5045496;28;20942;-44
2021/06/24 11:22:49;;;;;;;21.27;19.27;;;20.60;99.90;;;;;;5045127;28;20538;-44
2021/06/24 11:25:15;;;;;;;20.37;18.53;;;20.60;99.90;;;;;;5044448;28;20430;-43
2021/06/24 11:27:40;;;;;;;22.97;20.83;;;20.60;99.90;;;;;;5045829;28;20674;-42
2021/06/24 11:30:07;;;;;;;21.43;19.20;;;20.70;99.90;;;;;;5037534;28;20209;-43
2021/06/24 11:32:37;;;;;;;22.03;19.93;;;20.70;99.90;;;;;;5043744;28;20247;-44
2021/06/24 11:35:15;;;;;;;21.37;19.37;;;20.70;99.90;;;;;;5046012;28;20429;-44
2021/06/24 11:37:41;;;;;;;18.67;16.87;;;20.70;99.90;;;;;;5046132;28;20802;-44
2021/06/24 11:40:10;;;;;;;20.83;18.80;;;20.70;99.90;;;;;;5045119;28;20439;-43
2021/06/24 11:42:53;;;;;;;22.27;20.27;;;20.70;99.90;;;;;;5045821;28;20197;-42
2021/06/24 11:45:19;;;;;;;22.40;20.40;;;20.80;99.90;;;;;;5034889;28;20534;-43
2021/06/24 11:47:46;;;;;;;22.50;20.23;;;20.70;99.90;;;;;;5049239;28;20783;-47
2021/06/24 12:04:21;;;;;;;26.30;23.80;;;21.00;99.90;;;;;;5049507;28;20431;-42
2021/06/24 12:06:50;;;;;;;23.70;21.50;;;21.00;99.90;;;;;;5049634;28;20477;-46
2021/06/24 12:09:21;;;;;;;23.10;21.17;;;21.00;99.90;;;;;;5049001;28;20436;-43
2021/06/24 12:11:48;;;;;;;21.57;19.63;;;21.00;99.90;;;;;;5049508;28;20436;-49
2021/06/24 12:14:22;;;;;;;23.17;21.07;;;21.00;99.90;;;;;;5040716;28;20428;-44
2021/06/24 12:17:09;;;;;;;21.37;19.30;;;21.10;99.90;;;;;;5043689;28;20785;-44
2021/06/24 12:20:04;;;;;;;23.57;21.53;;;21.20;99.90;;;;;;5048833;28;20427;-43
2021/06/24 12:22:36;;;;;;;23.60;21.40;;;21.20;99.90;;;;;;5049224;28;20416;-47
2021/06/24 12:25:08;;;;;;;23.53;21.23;;;21.30;99.90;;;;;;5049224;28;20428;-46
2021/06/24 12:27:37;;;;;;;25.57;23.07;;;21.30;99.90;;;;;;5049011;28;20424;-43
2021/06/24 12:30:12;;;;;;;25.00;22.80;;;21.30;99.90;;;;;;5038810;28;20472;-45
2021/06/24 12:32:49;;;;;;;25.43;23.10;;;21.30;99.90;;;;;;5046965;28;20424;-42
2021/06/24 12:35:30;;;;;;;23.30;21.30;;;21.20;99.90;;;;;;5049506;28;20490;-44
2021/06/24 12:38:01;;;;;;;22.37;20.47;;;21.30;99.90;;;;;;5048639;28;20435;-43
2021/06/24 12:40:32;;;;;;;20.60;18.90;;;21.30;99.90;;;;;;5048396;28;20439;-44
2021/06/24 12:42:59;;;;;;;23.77;21.57;;;21.20;99.90;;;;;;5047100;28;20511;-45
2021/06/24 12:45:28;;;;;;;23.43;21.13;;;21.30;99.90;;;;;;5037731;28;20436;-45